Time;durP1;ratioP1;P1;durP2;ratioP2;P2;SDS_P1;SDS_P2;PMS_P1;PMS_P2;Temp;Humidity;BMP_temperature;BMP_pressure;BME280_temperature;BME280_humidity;BME280_pressure;Samples;Min_cycle;Max_cycle;Signal;HPM_P1;HPM_P2
2021/12/04 00:01:26;;;;;;;;;;;7.90;99.90;;;8.01;92.74;99810.94;5136490;27;19923;-70
2021/12/04 00:03:54;;;;;;;;;;;7.90;99.90;;;7.90;92.17;99783.88;5136150;27;19937;-70
2021/12/04 00:06:26;;;;;;;;;;;7.90;99.90;;;8.12;92.56;99805.59;5117939;27;19923;-70
2021/12/04 00:08:56;;;;;;;;;;;8.00;99.90;;;8.12;92.22;99800.31;5136414;27;20346;-70
2021/12/04 00:11:26;;;;;;;;;;;8.00;99.90;;;7.99;92.11;99783.78;5136140;27;19946;-70
2021/12/04 00:13:54;;;;;;;;;;;8.00;99.90;;;8.11;92.03;99803.81;5136175;27;19923;-70
2021/12/04 00:16:23;;;;;;;;;;;8.00;99.90;;;8.13;92.16;99791.50;5135967;27;19980;-70
2021/12/04 00:18:51;;;;;;;;;;;8.00;99.90;;;8.08;92.13;99782.81;5135909;27;19993;-70
2021/12/04 00:21:20;;;;;;;;;;;8.00;99.90;;;7.91;92.65;99785.66;5135808;27;19924;-70
2021/12/04 00:23:48;;;;;;;;;;;7.80;99.90;;;7.89;92.87;99776.00;5135726;27;19938;-70
2021/12/04 00:26:16;;;;;;;;;;;7.80;99.90;;;7.89;93.30;99776.00;5135932;27;19935;-70
2021/12/04 00:28:46;;;;;;;;;;;7.80;99.90;;;7.74;93.44;99786.72;5135972;27;19923;-70
2021/12/04 00:31:14;;;;;;;;;;;7.70;99.90;;;7.80;93.50;99769.06;5117417;27;20408;-70
2021/12/04 00:33:44;;;;;;;;;;;7.70;99.90;;;7.88;93.91;99774.25;5117345;27;19969;-70
2021/12/04 00:36:24;;;;;;;;;;;7.80;99.90;;;7.40;93.39;99716.91;5117451;27;19927;-70
2021/12/04 00:49:53;;;;;;;;;;;7.90;99.90;;;8.02;93.18;99783.75;5135322;27;19924;-70
2021/12/04 00:52:22;;;;;;;;;;;7.90;99.90;;;7.97;93.03;99782.06;5135259;27;19929;-70
2021/12/04 00:54:50;;;;;;;;;;;7.80;99.90;;;7.99;93.10;99782.94;5135494;27;20329;-70
2021/12/04 00:57:18;;;;;;;;;;;7.80;99.90;;;7.90;93.14;99768.09;5135051;27;19944;-70
2021/12/04 00:59:48;;;;;;;;;;;7.80;99.90;;;7.92;93.11;99768.94;5135065;27;19962;-70
2021/12/04 01:02:18;;;;;;;;;;;7.80;99.90;;;7.96;93.37;99756.59;5135373;27;19923;-70
2021/12/04 01:04:47;;;;;;;;;;;7.80;99.90;;;7.99;93.52;99767.97;5135345;27;19968;-70
2021/12/04 01:07:15;;;;;;;;;;;7.90;99.90;;;7.97;93.34;99761.88;5134890;27;20022;-70
2021/12/04 01:09:44;;;;;;;;;;;7.90;99.90;;;7.95;92.97;99760.16;5134802;27;19923;-70
2021/12/04 01:12:13;;;;;;;;;;;7.90;99.90;;;7.93;93.42;99754.03;5134862;27;19927;-70
2021/12/04 01:14:41;;;;;;;;;;;7.80;99.90;;;7.91;93.34;99740.88;5134809;27;19927;-70
2021/12/04 01:17:10;;;;;;;;;;;7.80;99.90;;;7.96;93.47;99746.97;5116508;27;19971;-70
2021/12/04 01:19:39;;;;;;;;;;;7.80;99.90;;;7.99;93.45;99746.91;5134731;27;20392;-70
2021/12/04 01:22:07;;;;;;;;;;;7.80;99.90;;;7.91;93.64;99738.25;5134645;27;20070;-70
2021/12/04 01:24:35;;;;;;;;;;;7.80;99.90;;;7.88;93.88;99733.00;5134613;27;19923;-70
2021/12/04 01:27:04;;;;;;;;;;;7.80;99.90;;;7.78;94.06;99741.06;5134418;27;19927;-70
2021/12/04 01:29:32;;;;;;;;;;;7.70;99.90;;;7.73;94.47;99714.78;5134577;27;19927;-70
2021/12/04 01:32:02;;;;;;;;;;;7.70;99.90;;;7.81;94.34;99719.94;5134426;27;19962;-70
2021/12/04 01:34:31;;;;;;;;;;;7.70;99.90;;;7.76;94.89;99730.53;5116314;27;20074;-70
2021/12/04 01:37:00;;;;;;;;;;;7.70;99.90;;;7.77;94.59;99718.25;5134398;27;20273;-70
2021/12/04 01:39:28;;;;;;;;;;;7.60;99.90;;;7.73;95.01;99722.66;5134639;27;19969;-70
2021/12/04 01:41:56;;;;;;;;;;;7.60;99.90;;;7.61;95.30;99678.06;5134372;27;19976;-70
2021/12/04 01:44:24;;;;;;;;;;;7.60;99.90;;;7.78;95.09;99712.94;5134319;27;20281;-70
2021/12/04 01:46:55;;;;;;;;;;;7.60;99.90;;;7.74;95.27;99729.66;5134650;27;19924;-70
2021/12/04 01:49:24;;;;;;;;;;;7.60;99.90;;;6.05;94.91;99425.78;5134635;27;19969;-70
2021/12/04 01:51:53;;;;;;;;;;;7.60;99.90;;;7.77;95.43;99716.47;5134774;27;19927;-70
2021/12/04 01:54:22;;;;;;;;;;;7.70;99.90;;;7.69;95.22;99717.44;5134162;27;19962;-70
2021/12/04 01:56:50;;;;;;;;;;;7.60;99.90;;;7.70;95.64;99714.81;5134061;27;20015;-71
2021/12/04 01:59:18;;;;;;;;;;;7.50;99.90;;;7.60;95.32;99694.75;5134106;27;19976;-70
2021/12/04 02:01:46;;;;;;;;;;;7.60;99.90;;;7.78;95.92;99712.94;5134188;27;19927;-70
2021/12/04 02:04:15;;;;;;;;;;;7.60;99.90;;;7.72;95.66;99710.41;5134218;28;19924;-70
2021/12/04 02:06:43;;;;;;;;;;;7.60;99.90;;;7.77;95.55;99703.31;5134266;28;20322;-70
2021/12/04 02:09:14;;;;;;;;;;;7.60;99.90;;;7.44;95.82;99644.97;5134114;28;19970;-70
2021/12/04 02:11:42;;;;;;;;;;;7.60;99.90;;;7.85;95.30;99713.75;5134234;28;19959;-70
2021/12/04 02:14:12;;;;;;;;;;;7.70;99.90;;;7.91;95.20;99711.94;5133928;28;19923;-70
2021/12/04 02:16:40;;;;;;;;;;;7.70;99.90;;;7.90;94.93;99720.72;5134279;28;20017;-70
2021/12/04 02:19:09;;;;;;;;;;;7.80;99.90;;;7.92;95.08;99711.03;5133911;28;19927;-70
2021/12/04 02:21:39;;;;;;;;;;;7.80;99.90;;;7.94;94.96;99714.50;5133929;28;20338;-70
2021/12/04 02:24:07;;;;;;;;;;;7.80;99.90;;;7.97;94.67;99711.88;5116031;28;19927;-70
2021/12/04 02:26:35;;;;;;;;;;;7.80;99.90;;;7.96;94.74;99711.84;5134448;28;19967;-70
2021/12/04 02:29:04;;;;;;;;;;;7.80;99.90;;;7.97;94.90;99705.72;5133799;28;20452;-70
2021/12/04 02:31:32;;;;;;;;;;;7.80;99.90;;;8.00;94.76;99703.91;5133789;28;19924;-70
2021/12/04 02:34:01;;;;;;;;;;;7.80;99.90;;;8.08;94.59;99709.06;5133784;28;19924;-70
2021/12/04 02:36:29;;;;;;;;;;;7.90;99.90;;;8.09;94.32;99709.03;5133793;28;19931;-70
2021/12/04 02:38:59;;;;;;;;;;;8.00;99.90;;;8.15;94.21;99701.06;5134363;28;19983;-70
2021/12/04 02:41:27;;;;;;;;;;;8.00;99.90;;;8.15;94.13;99703.69;5115537;28;19973;-70
2021/12/04 02:43:55;;;;;;;;;;;8.00;99.90;;;7.55;93.86;99586.06;5133729;28;19971;-70
2021/12/04 02:46:23;;;;;;;;;;;8.00;99.90;;;8.21;93.89;99701.00;5115522;28;19923;-70
2021/12/04 02:48:52;;;;;;;;;;;8.10;99.90;;;8.25;93.79;99700.97;5133780;28;19969;-70
2021/12/04 02:51:20;;;;;;;;;;;8.10;99.90;;;8.20;93.71;99694.00;5133659;28;19932;-70
2021/12/04 02:53:48;;;;;;;;;;;8.00;99.90;;;8.19;93.97;99701.88;5133929;28;19948;-71
2021/12/04 02:56:17;;;;;;;;;;;8.00;99.90;;;6.90;93.36;99478.22;5133590;28;19923;-70
2021/12/04 02:58:50;;;;;;;;;;;8.00;99.90;;;8.13;93.65;99691.44;5133893;28;19927;-70
2021/12/04 03:01:19;;;;;;;;;;;8.00;99.90;;;8.10;94.23;99697.63;5133609;28;20342;-70
2021/12/04 03:03:48;;;;;;;;;;;7.90;99.90;;;8.08;94.16;99688.00;5115220;28;19923;-70
2021/12/04 03:06:16;;;;;;;;;;;7.90;99.90;;;8.08;94.41;99695.91;5134072;28;19929;-70
2021/12/04 03:08:46;;;;;;;;;;;7.90;99.90;;;8.17;94.27;99703.66;5133458;27;19967;-71
2021/12/04 03:11:16;;;;;;;;;;;8.00;99.90;;;8.18;94.22;99697.53;5137615;27;19927;-70
2021/12/04 03:13:45;;;;;;;;;;;7.90;99.90;;;8.23;93.75;99693.06;5137173;27;20388;-71
2021/12/04 03:16:13;;;;;;;;;;;8.00;99.90;;;8.32;94.11;99689.47;5118934;27;19944;-70
2021/12/04 03:18:42;;;;;;;;;;;8.10;99.90;;;8.31;93.50;99679.81;5137097;27;19933;-71
2021/12/04 03:21:11;;;;;;;;;;;8.10;99.90;;;8.35;93.93;99679.75;5137053;27;19980;-70
2021/12/04 03:23:52;;;;;;;;;;;8.10;99.90;;;8.28;93.09;99669.34;5137598;27;19923;-70
2021/12/04 03:26:20;;;;;;;;;;;8.20;99.90;;;8.39;93.00;99688.47;5137327;27;19962;-70
2021/12/04 03:28:51;;;;;;;;;;;8.20;99.90;;;8.37;93.16;99677.09;5136892;27;20029;-70
2021/12/04 03:31:24;;;;;;;;;;;8.20;99.90;;;8.37;93.28;99674.47;5137176;27;19955;-70
2021/12/04 03:42:09;;;;;;;;;;;8.30;99.90;;;6.98;92.89;99421.19;5118214;27;20304;-70
2021/12/04 03:44:39;;;;;;;;;;;8.20;99.90;;;8.42;92.74;99651.56;5136560;27;20352;-69
2021/12/04 03:47:09;;;;;;;;;;;8.20;99.90;;;8.44;92.83;99644.50;5136688;27;19923;-70
2021/12/04 03:49:38;;;;;;;;;;;8.30;99.90;;;8.39;92.78;99647.19;5136515;27;19924;-71
2021/12/04 03:52:07;;;;;;;;;;;8.20;99.90;;;8.41;92.63;99670.88;5136390;27;19929;-70
2021/12/04 03:54:36;;;;;;;;;;;8.30;99.90;;;8.43;93.03;99655.94;5137021;27;19977;-70
2021/12/04 03:57:06;;;;;;;;;;;8.20;99.90;;;8.49;92.76;99655.84;5136321;27;19935;-70
2021/12/04 03:59:36;;;;;;;;;;;8.30;99.90;;;8.43;92.39;99634.84;5136217;27;19970;-70
2021/12/04 04:02:08;;;;;;;;;;;8.30;99.90;;;8.40;92.30;99648.09;5136826;27;20014;-70
2021/12/04 04:04:37;;;;;;;;;;;8.30;99.90;;;8.52;92.62;99648.75;5136621;27;19945;-70
2021/12/04 04:07:06;;;;;;;;;;;8.30;99.90;;;8.51;92.03;99651.41;5136411;27;19934;-70
2021/12/04 04:09:35;;;;;;;;;;;8.30;99.90;;;8.53;92.19;99645.25;5135958;27;19976;-70
2021/12/04 04:12:04;;;;;;;;;;;8.40;99.90;;;8.57;91.86;99641.66;5136336;27;19923;-70
2021/12/04 04:14:32;;;;;;;;;;;8.40;99.90;;;8.41;91.80;99602.38;5135953;27;20098;-70
2021/12/04 04:17:00;;;;;;;;;;;8.40;99.90;;;8.58;91.80;99642.50;5136273;27;20386;-70
2021/12/04 04:19:31;;;;;;;;;;;8.40;99.90;;;8.54;91.59;99631.16;5135913;27;20388;-71
2021/12/04 04:21:59;;;;;;;;;;;8.40;99.90;;;8.60;91.83;99630.19;5136435;27;19923;-71
2021/12/04 04:24:29;;;;;;;;;;;8.40;99.90;;;8.47;91.85;99623.38;5135762;27;19966;-71
2021/12/04 04:26:57;;;;;;;;;;;8.40;99.90;;;8.51;91.99;99635.59;5135709;27;20388;-70
2021/12/04 04:29:26;;;;;;;;;;;8.30;99.90;;;8.55;92.02;99632.91;5135606;27;19924;-70
2021/12/04 04:31:55;;;;;;;;;;;8.40;99.90;;;8.55;91.67;99629.41;5135649;27;19969;-71
2021/12/04 04:34:27;;;;;;;;;;;8.40;99.90;;;8.48;91.94;99631.25;5136205;27;19976;-70
2021/12/04 04:37:08;;;;;;;;;;;8.30;99.90;;;8.56;91.80;99610.91;5135585;27;19923;-70
2021/12/04 04:59:13;;;;;;;;;;;8.30;99.90;;;8.40;92.05;99600.66;5135189;27;19967;-70
2021/12/04 05:12:50;;;;;;;;;;;8.20;99.90;;;8.37;92.47;99601.56;5135204;27;20018;-69
2021/12/04 05:15:24;;;;;;;;;;;8.20;99.90;;;8.25;92.41;99574.53;5135136;27;20030;-70
2021/12/04 05:18:08;;;;;;;;;;;8.20;99.90;;;8.41;92.40;99594.47;5134828;27;19977;-70
2021/12/04 05:20:38;;;;;;;;;;;8.20;99.90;;;8.45;92.43;99583.88;5134658;27;19923;-70
2021/12/04 05:23:08;;;;;;;;;;;8.30;99.90;;;8.44;92.16;99583.91;5135013;27;19923;-70
2021/12/04 05:25:37;;;;;;;;;;;8.30;99.90;;;8.40;92.07;99580.44;5116372;27;20357;-70
2021/12/04 05:28:07;;;;;;;;;;;8.30;99.90;;;8.42;92.27;99583.06;5134589;27;19973;-70
2021/12/04 05:30:35;;;;;;;;;;;8.20;99.90;;;8.35;92.07;99608.63;5134470;27;19935;-70
2021/12/04 05:33:04;;;;;;;;;;;8.20;99.90;;;8.42;92.21;99583.06;5134312;27;19927;-70
2021/12/04 05:35:33;;;;;;;;;;;8.20;99.90;;;8.37;91.72;99575.22;5134435;27;20333;-70
2021/12/04 05:38:01;;;;;;;;;;;8.20;99.90;;;8.07;92.09;99544.09;5134400;27;20034;-70
2021/12/04 05:40:30;;;;;;;;;;;8.20;99.90;;;8.31;92.34;99579.72;5134370;27;19923;-70
2021/12/04 05:43:01;;;;;;;;;;;8.10;99.90;;;8.35;92.17;99570.88;5134949;27;19969;-70
2021/12/04 05:45:32;;;;;;;;;;;8.20;99.90;;;8.31;91.99;99567.44;5134381;27;19983;-70
2021/12/04 05:48:04;;;;;;;;;;;8.20;99.90;;;8.32;92.15;99569.19;5116120;27;19969;-70
2021/12/04 05:50:56;;;;;;;;;;;8.20;99.90;;;8.14;92.18;99545.72;5134212;27;19984;-70
2021/12/04 05:53:27;;;;;;;;;;;8.10;99.90;;;8.25;92.69;99556.97;5134233;27;20346;-70
2021/12/04 05:55:56;;;;;;;;;;;8.10;99.90;;;8.28;92.13;99556.06;5134785;27;19949;-70
2021/12/04 05:58:28;;;;;;;;;;;8.10;99.90;;;8.27;92.37;99562.22;5134081;27;20014;-70
2021/12/04 06:00:58;;;;;;;;;;;8.10;99.90;;;8.21;92.55;99561.41;5134121;27;20373;-70
2021/12/04 06:03:26;;;;;;;;;;;8.00;99.90;;;8.19;92.18;99562.31;5115725;28;19969;-69
2021/12/04 06:05:54;;;;;;;;;;;8.00;99.90;;;8.24;92.70;99552.59;5134622;28;20403;-70
2021/12/04 06:08:23;;;;;;;;;;;8.00;99.90;;;8.18;92.28;99560.59;5134029;28;19928;-70
2021/12/04 06:10:53;;;;;;;;;;;8.00;99.90;;;8.15;92.29;99557.97;5133918;28;19943;-70
2021/12/04 06:13:21;;;;;;;;;;;8.00;99.90;;;7.97;92.23;99529.34;5134588;28;20018;-70
2021/12/04 06:15:51;;;;;;;;;;;7.90;99.90;;;8.13;92.77;99560.66;5133950;28;20345;-70
2021/12/04 06:18:21;;;;;;;;;;;7.90;99.90;;;8.06;92.04;99558.13;5133967;28;19927;-70
2021/12/04 06:23:37;;;;;;;;;;;7.90;99.90;;;8.09;92.23;99566.84;5134002;28;19966;-70
2021/12/04 06:26:07;;;;;;;;;;;7.90;99.90;;;7.88;92.27;99551.38;5133870;28;19923;-70
2021/12/04 06:28:35;;;;;;;;;;;7.80;99.90;;;7.97;92.26;99564.44;5134168;28;20063;-70
2021/12/04 06:31:07;;;;;;;;;;;7.80;99.90;;;8.02;92.48;99565.22;5133748;28;19950;-69
2021/12/04 06:33:36;;;;;;;;;;;7.80;99.90;;;8.00;91.98;99563.50;5133888;28;20396;-70
2021/12/04 06:36:05;;;;;;;;;;;7.80;99.90;;;7.95;91.98;99560.97;5133767;28;19924;-70
2021/12/04 06:38:33;;;;;;;;;;;7.80;99.90;;;8.05;92.29;99559.03;5133794;28;19927;-70
2021/12/04 06:41:02;;;;;;;;;;;7.80;99.90;;;8.06;91.77;99558.13;5133769;28;20306;-70
2021/12/04 06:43:31;;;;;;;;;;;7.90;99.90;;;8.05;91.63;99557.25;5133694;27;20026;-69
2021/12/04 06:46:01;;;;;;;;;;;7.90;99.90;;;7.91;91.53;99532.94;5136994;27;20010;-70
2021/12/04 06:48:38;;;;;;;;;;;7.80;99.90;;;7.92;91.29;99537.28;5119494;27;19989;-70
2021/12/04 06:51:13;;;;;;;;;;;7.80;99.90;;;8.05;91.32;99565.16;5137693;27;19931;-70
2021/12/04 06:53:47;;;;;;;;;;;7.80;99.90;;;7.99;91.35;99541.56;5138283;27;19982;-70
2021/12/04 06:56:16;;;;;;;;;;;7.90;99.90;;;8.08;91.21;99549.34;5119415;27;19946;-70
2021/12/04 06:58:44;;;;;;;;;;;7.90;99.90;;;8.13;91.06;99547.50;5137462;27;19923;-70
2021/12/04 07:01:12;;;;;;;;;;;8.00;99.90;;;8.05;91.10;99541.47;5137441;27;20102;-70
2021/12/04 07:03:43;;;;;;;;;;;7.90;99.90;;;8.07;91.05;99538.84;5137752;27;19927;-69
2021/12/04 07:06:11;;;;;;;;;;;7.90;99.90;;;8.03;91.16;99537.97;5137680;27;20336;-70
2021/12/04 07:08:39;;;;;;;;;;;7.90;99.90;;;7.85;91.33;99526.88;5137324;27;20388;-71
2021/12/04 07:11:08;;;;;;;;;;;7.80;99.90;;;7.90;91.47;99539.06;5137515;27;19935;-70
2021/12/04 07:13:36;;;;;;;;;;;7.80;99.90;;;7.77;91.50;99529.63;5137498;27;19946;-70
2021/12/04 07:16:08;;;;;;;;;;;7.70;99.90;;;7.82;92.02;99538.31;5137136;27;19929;-70
2021/12/04 07:18:38;;;;;;;;;;;7.70;99.90;;;7.80;91.83;99537.47;5137188;27;20326;-70
2021/12/04 07:21:07;;;;;;;;;;;7.70;99.90;;;7.74;91.74;99523.56;5137046;27;19931;-70
2021/12/04 07:23:37;;;;;;;;;;;7.70;99.90;;;7.37;92.41;99517.94;5136963;27;19924;-70
2021/12/04 07:26:06;;;;;;;;;;;7.40;99.90;;;7.23;93.16;99511.97;5136914;27;19931;-70
2021/12/04 07:28:34;;;;;;;;;;;7.20;99.90;;;7.21;94.12;99495.34;5136779;27;19931;-70
2021/12/04 07:31:03;;;;;;;;;;;7.10;99.90;;;6.80;94.72;99477.47;5136685;27;19937;-70
2021/12/04 07:33:32;;;;;;;;;;;7.00;99.90;;;6.21;94.71;99380.97;5136747;27;19924;-70
2021/12/04 07:36:00;;;;;;;;;;;7.00;99.90;;;6.91;95.53;99507.09;5136885;27;19927;-70
2021/12/04 07:38:30;;;;;;;;;;;6.90;99.90;;;6.74;96.02;99493.28;5136851;27;19930;-70
2021/12/04 07:41:00;;;;;;;;;;;6.80;99.90;;;6.90;96.71;99486.09;5136638;27;20389;-70
2021/12/04 07:43:28;;;;;;;;;;;6.90;99.90;;;6.95;96.53;99486.94;5136930;27;19968;-70
2021/12/04 07:45:58;;;;;;;;;;;6.90;99.90;;;6.82;96.74;99509.84;5136535;27;20364;-70
2021/12/04 07:48:27;;;;;;;;;;;6.90;99.90;;;6.73;97.15;99481.06;5136449;27;19969;-70
2021/12/04 07:50:55;;;;;;;;;;;6.80;99.90;;;6.63;97.93;99474.16;5136624;27;19923;-70
2021/12/04 07:53:24;;;;;;;;;;;6.60;99.90;;;6.47;98.64;99476.97;5136452;27;19972;-70
2021/12/04 07:55:54;;;;;;;;;;;6.50;99.90;;;6.38;99.52;99473.56;5136022;27;19923;-70
2021/12/04 07:58:22;;;;;;;;;;;6.40;99.90;;;6.50;99.86;99453.31;5136581;27;19931;-70
2021/12/04 08:00:51;;;;;;;;;;;6.50;99.90;;;6.57;99.67;99473.34;5136498;27;19934;-70
2021/12/04 08:03:20;;;;;;;;;;;6.50;99.90;;;6.61;100.00;99467.19;5135989;27;20013;-70
2021/12/04 08:05:50;;;;;;;;;;;6.60;99.90;;;6.68;100.00;99472.34;5136056;27;19927;-70
2021/12/04 08:08:19;;;;;;;;;;;6.60;99.90;;;6.39;99.98;99428.03;5136132;27;19924;-71
2021/12/04 08:10:47;;;;;;;;;;;6.70;99.90;;;6.50;100.00;99476.94;5136188;27;20357;-71
2021/12/04 08:13:16;;;;;;;;;;;6.60;99.90;;;6.57;100.00;99481.22;5135984;27;19931;-72
2021/12/04 08:15:45;;;;;;;;;;;6.60;99.90;;;6.58;100.00;99486.47;5136320;27;19927;-74
2021/12/04 08:18:18;;;;;;;;;;;6.60;99.90;;;6.76;100.00;99493.28;5135893;27;20054;-74
2021/12/04 08:20:47;;;;;;;;;;;6.70;99.90;;;6.70;100.00;99475.81;5117458;27;20363;-74
2021/12/04 08:23:15;;;;;;;;;;;6.80;99.90;;;6.90;100.00;99500.13;5135733;27;19924;-74
2021/12/04 08:25:44;;;;;;;;;;;6.90;99.90;;;6.98;100.00;99493.03;5117421;27;20395;-73
2021/12/04 08:28:12;;;;;;;;;;;6.90;99.90;;;7.08;99.48;99478.00;5135647;27;20023;-75
2021/12/04 08:30:42;;;;;;;;;;;7.10;99.90;;;7.11;99.19;99481.47;5135616;27;19930;-76
2021/12/04 08:33:12;;;;;;;;;;;7.10;99.90;;;7.10;98.91;99487.59;5135653;27;20435;-72
2021/12/04 08:35:40;;;;;;;;;;;7.10;99.90;;;7.13;98.93;99484.94;5135558;27;19955;-72
2021/12/04 08:38:11;;;;;;;;;;;7.20;99.90;;;7.30;98.56;99489.97;5117436;27;20341;-75
2021/12/04 08:40:41;;;;;;;;;;;7.30;99.90;;;7.14;98.20;99489.28;5135555;27;19989;-72
2021/12/04 08:43:12;;;;;;;;;;;7.10;99.90;;;7.34;98.88;99478.50;5135327;27;19927;-70
2021/12/04 08:45:43;;;;;;;;;;;7.20;99.90;;;7.46;98.32;99474.84;5135407;27;19928;-73
2021/12/04 08:48:12;;;;;;;;;;;7.40;99.90;;;7.39;98.21;99473.19;5135445;27;19924;-73
2021/12/04 08:50:41;;;;;;;;;;;7.30;99.90;;;7.23;98.06;99462.91;5135532;27;19931;-72
2021/12/04 08:53:10;;;;;;;;;;;7.30;99.90;;;7.21;98.35;99450.66;5135110;27;19958;-74
2021/12/04 08:55:39;;;;;;;;;;;7.20;99.90;;;7.27;98.25;99458.47;5116569;27;19923;-72
2021/12/04 08:58:08;;;;;;;;;;;7.30;99.90;;;7.13;98.30;99432.34;5135059;27;19966;-74
2021/12/04 09:00:40;;;;;;;;;;;7.20;99.90;;;7.21;98.32;99442.78;5135010;27;20018;-69
2021/12/04 09:03:10;;;;;;;;;;;7.30;99.90;;;7.20;98.24;99456.81;5135164;27;19973;-71
2021/12/04 09:05:38;;;;;;;;;;;7.20;99.90;;;6.97;99.16;99451.84;5134961;27;19923;-71
2021/12/04 09:08:08;;;;;;;;;;;6.90;99.90;;;7.03;100.00;99454.41;5134476;27;19931;-71
2021/12/04 09:10:41;;;;;;;;;;;6.90;99.90;;;7.13;100.00;99450.75;5135442;27;19943;-78
2021/12/04 09:13:09;;;;;;;;;;;7.00;99.90;;;7.01;100.00;99444.78;5134924;27;19927;-72
2021/12/04 09:15:40;;;;;;;;;;;7.00;99.90;;;7.04;100.00;99453.53;5134828;27;19930;-74
2021/12/04 09:18:10;;;;;;;;;;;7.00;99.90;;;6.94;100.00;99458.91;5134600;27;19959;-77
2021/12/04 09:20:38;;;;;;;;;;;6.90;99.90;;;6.89;100.00;99466.84;5134674;27;19924;-71
2021/12/04 09:23:13;;;;;;;;;;;6.90;99.90;;;6.91;100.00;99456.34;5134641;27;20014;-71
2021/12/04 09:25:45;;;;;;;;;;;6.90;99.90;;;7.03;100.00;99446.50;5116182;27;19927;-71
2021/12/04 09:28:25;;;;;;;;;;;7.00;99.90;;;7.06;100.00;99443.88;5134672;27;19928;-72
2021/12/04 10:01:27;;;;;;;;;;;7.20;99.90;;;7.40;100.00;99407.41;5134144;27;20353;-70
2021/12/04 10:04:20;;;;;;;;;;;7.30;99.90;;;7.47;100.00;99402.94;5134275;27;19931;-69
2021/12/04 10:12:52;;;;;;;;;;;7.30;99.90;;;7.32;100.00;99382.16;5134305;28;19946;-70
2021/12/04 10:21:16;;;;;;;;;;;7.20;99.90;;;7.23;100.00;99394.53;5138299;27;19927;-71
2021/12/04 10:24:01;;;;;;;;;;;7.30;99.90;;;7.47;100.00;99402.94;5138849;27;20318;-71
2021/12/04 10:34:54;;;;;;;;;;;7.70;99.90;;;7.84;100.00;99404.94;5127408;27;20326;-71
2021/12/04 10:37:25;;;;;;;;;;;7.80;99.90;;;7.87;99.54;99402.28;5138581;27;19927;-70
2021/12/04 10:39:58;;;;;;;;;;;7.80;99.90;;;7.84;98.95;99415.47;5137872;27;20296;-71
2021/12/04 10:42:31;;;;;;;;;;;7.80;99.90;;;7.89;98.40;99403.09;5137837;27;19923;-71
2021/12/04 10:44:59;;;;;;;;;;;7.80;99.90;;;7.99;98.01;99398.56;5137846;27;19972;-70
2021/12/04 10:47:28;;;;;;;;;;;7.90;99.90;;;7.97;97.43;99395.97;5137583;27;19927;-71
2021/12/04 10:50:10;;;;;;;;;;;7.90;99.90;;;7.99;97.56;99394.13;5137836;27;19976;-71
2021/12/04 10:52:49;;;;;;;;;;;8.00;99.90;;;8.04;97.20;99392.31;5119377;27;20352;-71
2021/12/04 10:55:24;;;;;;;;;;;8.00;99.90;;;8.10;96.83;99381.66;5137570;27;19978;-72
2021/12/04 11:01:03;;;;;;;;;;;8.10;99.90;;;8.25;96.43;99384.91;5137783;27;19924;-71
2021/12/04 11:03:38;;;;;;;;;;;8.10;99.90;;;8.27;95.62;99380.50;5137450;27;19930;-70
2021/12/04 11:26:47;;;;;;;;;;;8.10;99.90;;;8.11;96.27;99328.09;5137238;27;19972;-73
2021/12/04 11:40:54;;;;;;;;;;;8.20;99.90;;;8.23;96.35;99314.69;5136787;27;19950;-76
2021/12/04 11:43:27;;;;;;;;;;;8.20;99.90;;;8.17;96.38;99320.06;5137289;27;20030;-71
2021/12/04 11:46:13;;;;;;;;;;;8.10;99.90;;;8.16;96.60;99328.00;5136625;27;19927;-70
2021/12/04 11:48:43;;;;;;;;;;;8.00;99.90;;;8.15;96.54;99337.66;5136459;27;19924;-70
2021/12/04 11:51:13;;;;;;;;;;;8.00;99.90;;;8.23;97.00;99333.13;5136506;27;20026;-70
2021/12/04 11:53:42;;;;;;;;;;;8.10;99.90;;;8.11;96.62;99312.28;5137031;27;19924;-71
2021/12/04 11:56:18;;;;;;;;;;;8.10;99.90;;;8.27;96.00;99319.91;5136270;27;19924;-71
2021/12/04 11:58:48;;;;;;;;;;;8.10;99.90;;;8.36;95.90;99323.25;5118180;27;20023;-69
2021/12/04 12:01:28;;;;;;;;;;;8.20;99.90;;;8.40;95.69;99311.72;5136490;27;20347;-69
2021/12/04 12:03:58;;;;;;;;;;;8.20;99.90;;;8.47;95.36;99304.59;5114651;28;19928;-69
2021/12/04 12:06:33;;;;;;;;;;;8.30;99.90;;;8.48;94.35;99301.91;5115875;28;20018;-70
2021/12/04 12:09:08;;;;;;;;;;;8.30;99.90;;;8.58;94.73;99302.56;5115954;28;19928;-69
2021/12/04 12:11:38;;;;;;;;;;;8.40;99.90;;;8.62;94.64;99296.34;5115577;28;19928;-70
2021/12/04 12:14:10;;;;;;;;;;;8.50;99.90;;;8.51;94.41;99275.50;5115534;28;19932;-70
2021/12/04 12:16:46;;;;;;;;;;;8.50;99.90;;;8.67;94.29;99291.84;5115563;28;19928;-69
2021/12/04 12:19:25;;;;;;;;;;;8.50;99.90;;;8.65;93.63;99286.59;5115726;28;20295;-72
2021/12/04 12:22:00;;;;;;;;;;;8.50;99.90;;;8.67;93.92;99281.31;5115341;27;19931;-70
2021/12/04 12:24:46;;;;;;;;;;;8.50;99.90;;;8.64;93.58;99273.47;5115712;28;19924;-71
2021/12/04 12:27:23;;;;;;;;;;;8.50;99.90;;;8.76;93.03;99283.72;5115388;28;20006;-71
2021/12/04 12:32:58;;;;;;;;;;;8.60;99.90;;;8.81;93.06;99279.22;5115392;28;19924;-71
2021/12/04 12:38:17;;;;;;;;;;;8.70;99.90;;;8.74;93.43;99278.50;5113812;28;19924;-70
2021/12/04 12:40:59;;;;;;;;;;;8.60;99.90;;;8.76;93.71;99278.47;5115075;28;20014;-70
2021/12/04 12:43:36;;;;;;;;;;;8.60;99.90;;;8.73;93.35;99281.19;5114123;28;19928;-70
2021/12/04 12:46:04;;;;;;;;;;;8.60;99.90;;;8.70;93.96;99276.84;5115226;28;20361;-70
2021/12/04 12:48:44;;;;;;;;;;;8.60;99.90;;;8.60;94.35;99266.53;5114875;28;20023;-72
2021/12/04 12:51:13;;;;;;;;;;;8.50;99.90;;;8.53;94.45;99273.72;5113754;28;20373;-72
2021/12/04 12:53:44;;;;;;;;;;;8.40;99.90;;;8.36;95.39;99286.38;5114631;28;19935;-71
2021/12/04 12:56:14;;;;;;;;;;;8.30;99.90;;;8.15;96.11;99278.88;5113708;28;19971;-71
2021/12/04 12:58:47;;;;;;;;;;;8.10;99.90;;;8.27;95.04;99283.03;5114674;28;19955;-72
2021/12/04 13:12:49;;;;;;;;;;;7.80;99.90;;;7.76;94.20;99280.50;5116699;27;20319;-74
2021/12/04 13:15:31;;;;;;;;;;;7.70;99.90;;;7.91;94.30;99282.88;5135188;27;19963;-74
2021/12/04 13:18:10;;;;;;;;;;;7.80;99.90;;;7.98;94.51;99286.22;5135109;27;19959;-73
2021/12/04 13:20:40;;;;;;;;;;;7.90;99.90;;;8.07;94.44;99296.59;5135026;27;19931;-74
2021/12/04 13:23:12;;;;;;;;;;;7.90;99.90;;;7.98;95.08;99294.13;5134661;27;19927;-74
2021/12/04 13:25:49;;;;;;;;;;;7.90;99.90;;;7.92;95.40;99303.03;5116435;27;19968;-71
2021/12/04 13:30:46;;;;;;;;;;;7.80;99.90;;;7.94;95.78;99297.72;5134874;27;19963;-71
2021/12/04 13:33:15;;;;;;;;;;;7.80;99.90;;;7.99;95.14;99302.00;5134453;27;19927;-72
2021/12/04 13:35:46;;;;;;;;;;;7.90;99.90;;;7.75;94.50;99276.16;5134503;27;19924;-72
2021/12/04 13:38:16;;;;;;;;;;;7.80;99.90;;;7.72;94.41;99255.19;5116405;27;20015;-72
2021/12/04 13:40:48;;;;;;;;;;;7.90;99.90;;;7.96;93.62;99299.44;5134403;27;19962;-72
2021/12/04 13:43:18;;;;;;;;;;;7.80;99.90;;;7.39;93.70;99232.13;5134460;27;19967;-72
2021/12/04 13:45:47;;;;;;;;;;;7.70;99.90;;;7.96;92.98;99296.81;5135006;27;19949;-71
2021/12/04 13:48:20;;;;;;;;;;;7.90;99.90;;;8.14;92.54;99314.00;5114946;28;19927;-67
2021/12/04 13:50:50;;;;;;;;;;;8.00;99.90;;;8.03;92.08;99316.00;5134923;27;19958;-74
2021/12/04 13:53:21;;;;;;;;;;;8.00;99.90;;;8.03;92.65;99311.56;5133819;27;19939;-83
2021/12/04 13:55:53;;;;;;;;;;;7.90;99.90;;;8.03;92.75;99310.72;5134334;27;19928;-80
2021/12/04 13:58:21;;;;;;;;;;;7.90;99.90;;;8.07;92.96;99307.13;5134438;27;19927;-76
2021/12/04 14:00:50;;;;;;;;;;;7.90;99.90;;;8.13;93.15;99317.53;5134384;27;20380;-82
2021/12/04 14:03:24;;;;;;;;;;;7.90;99.90;;;8.20;93.53;99320.03;5133700;27;19947;-81
2021/12/04 14:05:56;;;;;;;;;;;8.00;99.90;;;8.13;93.48;99315.75;5133312;27;21419;-70
2021/12/04 14:08:24;;;;;;;;;;;8.00;99.90;;;8.23;93.62;99319.97;5134079;28;19927;-71
2021/12/04 14:10:53;;;;;;;;;;;8.10;99.90;;;8.20;93.45;99319.16;5115876;28;19923;-77
2021/12/04 14:14:13;;;;;;;13.00;6.10;;;8.10;99.90;;;8.23;93.31;99341.03;5151721;27;20193;-72
2021/12/04 14:16:43;;;;;;;13.05;6.50;;;8.10;99.90;;;8.19;93.94;99334.09;5129646;28;20047;-70
2021/12/04 14:19:15;;;;;;;17.17;6.88;;;8.10;99.90;;;8.23;93.90;99341.94;5131246;28;20047;-72
2021/12/04 14:21:51;;;;;;;16.95;6.97;;;8.10;99.90;;;7.99;94.18;99304.63;5131314;27;20039;-72
2021/12/04 14:24:27;;;;;;;18.92;7.28;;;8.00;99.90;;;7.94;93.85;99332.81;5130938;28;20043;-72
2021/12/04 14:26:56;;;;;;;18.38;7.95;;;7.90;99.90;;;8.04;93.45;99338.78;5129810;28;20452;-71